sensor_id;sensor_type;location;lat;lon;timestamp;temperature;humidity
42199;DHT22;27868;45.184;5.786;2023-07-08T00:02:43;27.10;63.30
42199;DHT22;27868;45.184;5.786;2023-07-08T00:05:27;27.00;63.20
42199;DHT22;27868;45.184;5.786;2023-07-08T00:08:16;27.00;63.40
42199;DHT22;27868;45.184;5.786;2023-07-08T00:11:01;27.00;63.40
42199;DHT22;27868;45.184;5.786;2023-07-08T00:13:46;27.00;64.10
42199;DHT22;27868;45.184;5.786;2023-07-08T00:16:30;26.90;63.90
42199;DHT22;27868;45.184;5.786;2023-07-08T00:19:16;26.90;63.90
42199;DHT22;27868;45.184;5.786;2023-07-08T00:22:07;26.90;63.70
42199;DHT22;27868;45.184;5.786;2023-07-08T00:24:52;26.90;63.90
42199;DHT22;27868;45.184;5.786;2023-07-08T00:27:36;26.80;64.00
42199;DHT22;27868;45.184;5.786;2023-07-08T00:30:28;26.80;63.90
42199;DHT22;27868;45.184;5.786;2023-07-08T00:33:13;26.80;64.00
42199;DHT22;27868;45.184;5.786;2023-07-08T00:35:58;26.80;64.70
42199;DHT22;27868;45.184;5.786;2023-07-08T00:38:42;26.80;64.80
42199;DHT22;27868;45.184;5.786;2023-07-08T00:41:34;26.80;64.20
42199;DHT22;27868;45.184;5.786;2023-07-08T00:44:19;26.80;64.10
42199;DHT22;27868;45.184;5.786;2023-07-08T00:47:07;26.80;64.20
42199;DHT22;27868;45.184;5.786;2023-07-08T00:49:59;26.80;64.30
42199;DHT22;27868;45.184;5.786;2023-07-08T00:52:46;26.80;64.30
42199;DHT22;27868;45.184;5.786;2023-07-08T00:55:31;26.70;64.30
42199;DHT22;27868;45.184;5.786;2023-07-08T00:58:16;26.80;65.20
42199;DHT22;27868;45.184;5.786;2023-07-08T01:01:01;26.70;64.40
42199;DHT22;27868;45.184;5.786;2023-07-08T01:03:49;26.70;64.50
42199;DHT22;27868;45.184;5.786;2023-07-08T01:06:36;26.70;64.50
42199;DHT22;27868;45.184;5.786;2023-07-08T01:09:24;26.60;64.50
42199;DHT22;27868;45.184;5.786;2023-07-08T01:12:12;26.60;65.10
42199;DHT22;27868;45.184;5.786;2023-07-08T01:14:58;26.60;64.70
42199;DHT22;27868;45.184;5.786;2023-07-08T01:17:44;26.60;65.90
42199;DHT22;27868;45.184;5.786;2023-07-08T01:20:29;26.60;65.90
42199;DHT22;27868;45.184;5.786;2023-07-08T01:23:14;26.50;66.20
42199;DHT22;27868;45.184;5.786;2023-07-08T01:25:58;26.50;66.60
42199;DHT22;27868;45.184;5.786;2023-07-08T01:28:43;26.40;66.60
42199;DHT22;27868;45.184;5.786;2023-07-08T01:31:29;26.40;66.90
42199;DHT22;27868;45.184;5.786;2023-07-08T01:34:13;26.30;67.30
42199;DHT22;27868;45.184;5.786;2023-07-08T01:36:58;26.30;67.50
42199;DHT22;27868;45.184;5.786;2023-07-08T01:39:43;26.30;67.40
42199;DHT22;27868;45.184;5.786;2023-07-08T01:42:27;26.30;67.30
42199;DHT22;27868;45.184;5.786;2023-07-08T01:45:17;26.30;67.70
42199;DHT22;27868;45.184;5.786;2023-07-08T01:48:05;26.20;67.60
42199;DHT22;27868;45.184;5.786;2023-07-08T01:50:54;26.20;68.50
42199;DHT22;27868;45.184;5.786;2023-07-08T01:53:41;26.20;68.00
42199;DHT22;27868;45.184;5.786;2023-07-08T01:56:26;26.10;68.10
42199;DHT22;27868;45.184;5.786;2023-07-08T01:59:10;26.10;68.90
42199;DHT22;27868;45.184;5.786;2023-07-08T02:01:55;26.10;69.10
42199;DHT22;27868;45.184;5.786;2023-07-08T02:04:39;26.10;68.50
42199;DHT22;27868;45.184;5.786;2023-07-08T02:07:24;26.10;68.40
42199;DHT22;27868;45.184;5.786;2023-07-08T02:10:08;26.00;69.50
42199;DHT22;27868;45.184;5.786;2023-07-08T02:12:53;26.00;69.20
42199;DHT22;27868;45.184;5.786;2023-07-08T02:15:37;26.00;69.00
42199;DHT22;27868;45.184;5.786;2023-07-08T02:18:22;25.90;69.50
42199;DHT22;27868;45.184;5.786;2023-07-08T02:21:09;25.90;69.40
42199;DHT22;27868;45.184;5.786;2023-07-08T02:23:53;25.80;70.00
42199;DHT22;27868;45.184;5.786;2023-07-08T02:26:38;25.80;69.60
42199;DHT22;27868;45.184;5.786;2023-07-08T02:29:23;25.80;69.30
42199;DHT22;27868;45.184;5.786;2023-07-08T02:32:08;25.70;70.10
42199;DHT22;27868;45.184;5.786;2023-07-08T02:34:53;25.60;70.70
42199;DHT22;27868;45.184;5.786;2023-07-08T02:37:38;25.60;69.80
42199;DHT22;27868;45.184;5.786;2023-07-08T02:40:23;25.60;69.50
42199;DHT22;27868;45.184;5.786;2023-07-08T02:43:08;25.60;69.40
42199;DHT22;27868;45.184;5.786;2023-07-08T02:45:52;25.60;69.40
42199;DHT22;27868;45.184;5.786;2023-07-08T02:48:37;25.60;69.00
42199;DHT22;27868;45.184;5.786;2023-07-08T02:51:21;25.70;68.40
42199;DHT22;27868;45.184;5.786;2023-07-08T02:54:06;25.60;69.10
42199;DHT22;27868;45.184;5.786;2023-07-08T02:56:50;25.60;68.40
42199;DHT22;27868;45.184;5.786;2023-07-08T02:59:35;25.60;68.40
42199;DHT22;27868;45.184;5.786;2023-07-08T03:02:20;25.60;68.30
42199;DHT22;27868;45.184;5.786;2023-07-08T03:05:05;25.60;68.10
42199;DHT22;27868;45.184;5.786;2023-07-08T03:07:50;25.60;67.70
42199;DHT22;27868;45.184;5.786;2023-07-08T03:10:35;25.60;68.20
42199;DHT22;27868;45.184;5.786;2023-07-08T03:13:19;25.60;68.40
42199;DHT22;27868;45.184;5.786;2023-07-08T03:16:04;25.60;67.70
42199;DHT22;27868;45.184;5.786;2023-07-08T03:18:56;25.60;68.30
42199;DHT22;27868;45.184;5.786;2023-07-08T03:21:41;25.60;68.10
42199;DHT22;27868;45.184;5.786;2023-07-08T03:24:26;25.50;67.20
42199;DHT22;27868;45.184;5.786;2023-07-08T03:27:14;25.50;67.80
42199;DHT22;27868;45.184;5.786;2023-07-08T03:29:58;25.50;67.20
42199;DHT22;27868;45.184;5.786;2023-07-08T03:32:43;25.50;67.20
42199;DHT22;27868;45.184;5.786;2023-07-08T03:35:28;25.50;67.10
42199;DHT22;27868;45.184;5.786;2023-07-08T03:38:12;25.40;67.10
42199;DHT22;27868;45.184;5.786;2023-07-08T03:40:57;25.40;67.20
42199;DHT22;27868;45.184;5.786;2023-07-08T03:43:41;25.40;67.30
42199;DHT22;27868;45.184;5.786;2023-07-08T03:46:26;25.30;67.30
42199;DHT22;27868;45.184;5.786;2023-07-08T03:49:11;25.30;67.30
42199;DHT22;27868;45.184;5.786;2023-07-08T03:51:56;25.30;67.40
42199;DHT22;27868;45.184;5.786;2023-07-08T03:54:40;25.30;68.10
42199;DHT22;27868;45.184;5.786;2023-07-08T03:57:25;25.30;67.50
42199;DHT22;27868;45.184;5.786;2023-07-08T04:00:10;25.20;67.40
42199;DHT22;27868;45.184;5.786;2023-07-08T04:02:56;25.20;67.40
42199;DHT22;27868;45.184;5.786;2023-07-08T04:05:40;25.20;67.40
42199;DHT22;27868;45.184;5.786;2023-07-08T04:08:25;25.20;67.50
42199;DHT22;27868;45.184;5.786;2023-07-08T04:11:11;25.10;67.50
42199;DHT22;27868;45.184;5.786;2023-07-08T04:13:56;25.10;67.50
42199;DHT22;27868;45.184;5.786;2023-07-08T04:16:45;25.00;67.50
42199;DHT22;27868;45.184;5.786;2023-07-08T04:19:30;25.00;67.40
42199;DHT22;27868;45.184;5.786;2023-07-08T04:22:14;25.00;67.10
42199;DHT22;27868;45.184;5.786;2023-07-08T04:24:59;25.00;66.90
42199;DHT22;27868;45.184;5.786;2023-07-08T04:27:43;25.00;67.20
42199;DHT22;27868;45.184;5.786;2023-07-08T04:30:28;24.90;67.70
42199;DHT22;27868;45.184;5.786;2023-07-08T04:33:13;24.80;66.80
42199;DHT22;27868;45.184;5.786;2023-07-08T04:35:57;24.80;66.60
42199;DHT22;27868;45.184;5.786;2023-07-08T04:38:42;24.80;66.60
42199;DHT22;27868;45.184;5.786;2023-07-08T04:41:30;24.70;66.20
42199;DHT22;27868;45.184;5.786;2023-07-08T04:44:15;24.70;66.40
42199;DHT22;27868;45.184;5.786;2023-07-08T04:47:02;24.70;66.40
42199;DHT22;27868;45.184;5.786;2023-07-08T04:49:46;24.70;67.10
42199;DHT22;27868;45.184;5.786;2023-07-08T04:52:31;24.70;66.20
42199;DHT22;27868;45.184;5.786;2023-07-08T04:55:16;24.70;66.40
42199;DHT22;27868;45.184;5.786;2023-07-08T04:58:00;24.70;66.30
42199;DHT22;27868;45.184;5.786;2023-07-08T05:00:46;24.70;66.30
42199;DHT22;27868;45.184;5.786;2023-07-08T05:03:31;24.70;66.30
42199;DHT22;27868;45.184;5.786;2023-07-08T05:06:16;24.70;66.30
42199;DHT22;27868;45.184;5.786;2023-07-08T05:09:01;24.70;66.30
42199;DHT22;27868;45.184;5.786;2023-07-08T05:11:46;24.70;66.50
42199;DHT22;27868;45.184;5.786;2023-07-08T05:14:30;24.80;66.30
42199;DHT22;27868;45.184;5.786;2023-07-08T05:17:15;24.70;66.10
42199;DHT22;27868;45.184;5.786;2023-07-08T05:19:59;24.80;66.20
42199;DHT22;27868;45.184;5.786;2023-07-08T05:22:45;24.80;66.30
42199;DHT22;27868;45.184;5.786;2023-07-08T05:25:31;24.70;66.30
42199;DHT22;27868;45.184;5.786;2023-07-08T05:28:15;24.70;66.40
42199;DHT22;27868;45.184;5.786;2023-07-08T05:31:00;24.70;66.60
42199;DHT22;27868;45.184;5.786;2023-07-08T05:33:44;24.70;67.20
42199;DHT22;27868;45.184;5.786;2023-07-08T05:36:29;24.70;67.30
42199;DHT22;27868;45.184;5.786;2023-07-08T05:39:14;24.70;66.60
42199;DHT22;27868;45.184;5.786;2023-07-08T05:41:58;24.70;66.70
42199;DHT22;27868;45.184;5.786;2023-07-08T05:44:43;24.70;66.70
42199;DHT22;27868;45.184;5.786;2023-07-08T05:47:27;24.80;67.40
42199;DHT22;27868;45.184;5.786;2023-07-08T05:50:12;24.80;66.80
42199;DHT22;27868;45.184;5.786;2023-07-08T05:52:56;24.80;66.80
42199;DHT22;27868;45.184;5.786;2023-07-08T05:55:41;24.80;66.80
42199;DHT22;27868;45.184;5.786;2023-07-08T05:58:26;24.90;66.90
42199;DHT22;27868;45.184;5.786;2023-07-08T06:01:11;25.00;67.00
42199;DHT22;27868;45.184;5.786;2023-07-08T06:03:55;25.00;66.90
42199;DHT22;27868;45.184;5.786;2023-07-08T06:06:42;25.10;67.20
42199;DHT22;27868;45.184;5.786;2023-07-08T06:09:26;25.20;67.00
42199;DHT22;27868;45.184;5.786;2023-07-08T06:12:11;25.30;66.90
42199;DHT22;27868;45.184;5.786;2023-07-08T06:14:56;25.40;66.80
42199;DHT22;27868;45.184;5.786;2023-07-08T06:17:41;25.60;66.70
42199;DHT22;27868;45.184;5.786;2023-07-08T06:20:25;25.70;67.00
42199;DHT22;27868;45.184;5.786;2023-07-08T06:23:10;25.80;66.10
42199;DHT22;27868;45.184;5.786;2023-07-08T06:25:55;26.00;65.80
42199;DHT22;27868;45.184;5.786;2023-07-08T06:28:39;26.00;65.40
42199;DHT22;27868;45.184;5.786;2023-07-08T06:31:24;26.10;65.50
42199;DHT22;27868;45.184;5.786;2023-07-08T06:34:08;26.20;65.70
42199;DHT22;27868;45.184;5.786;2023-07-08T06:36:53;26.30;65.20
42199;DHT22;27868;45.184;5.786;2023-07-08T06:39:37;26.40;65.40
42199;DHT22;27868;45.184;5.786;2023-07-08T06:42:22;26.50;65.40
42199;DHT22;27868;45.184;5.786;2023-07-08T06:45:06;26.60;64.80
42199;DHT22;27868;45.184;5.786;2023-07-08T06:47:51;26.60;64.30
42199;DHT22;27868;45.184;5.786;2023-07-08T06:50:35;26.60;64.30
42199;DHT22;27868;45.184;5.786;2023-07-08T06:53:20;26.70;64.50
42199;DHT22;27868;45.184;5.786;2023-07-08T06:56:05;26.70;64.50
42199;DHT22;27868;45.184;5.786;2023-07-08T06:58:49;26.80;64.10
42199;DHT22;27868;45.184;5.786;2023-07-08T07:01:34;26.80;63.60
42199;DHT22;27868;45.184;5.786;2023-07-08T07:04:18;26.80;63.70
42199;DHT22;27868;45.184;5.786;2023-07-08T07:07:03;26.80;62.60
42199;DHT22;27868;45.184;5.786;2023-07-08T07:09:47;26.90;63.10
42199;DHT22;27868;45.184;5.786;2023-07-08T07:12:32;26.90;62.60
42199;DHT22;27868;45.184;5.786;2023-07-08T07:15:17;27.00;62.50
42199;DHT22;27868;45.184;5.786;2023-07-08T07:18:01;27.00;62.40
42199;DHT22;27868;45.184;5.786;2023-07-08T07:20:47;27.00;62.30
42199;DHT22;27868;45.184;5.786;2023-07-08T07:23:32;27.00;62.10
42199;DHT22;27868;45.184;5.786;2023-07-08T07:26:17;27.10;62.00
42199;DHT22;27868;45.184;5.786;2023-07-08T07:29:02;27.00;61.10
42199;DHT22;27868;45.184;5.786;2023-07-08T07:31:46;27.00;62.50
42199;DHT22;27868;45.184;5.786;2023-07-08T07:34:31;27.10;62.00
42199;DHT22;27868;45.184;5.786;2023-07-08T07:37:16;27.20;62.40
42199;DHT22;27868;45.184;5.786;2023-07-08T07:40:01;27.20;61.50
42199;DHT22;27868;45.184;5.786;2023-07-08T07:42:45;27.20;61.40
42199;DHT22;27868;45.184;5.786;2023-07-08T07:45:30;27.20;61.50
42199;DHT22;27868;45.184;5.786;2023-07-08T07:48:14;27.30;61.40
42199;DHT22;27868;45.184;5.786;2023-07-08T07:50:59;27.20;60.50
42199;DHT22;27868;45.184;5.786;2023-07-08T07:53:43;27.20;61.60
42199;DHT22;27868;45.184;5.786;2023-07-08T07:56:28;27.30;61.60
42199;DHT22;27868;45.184;5.786;2023-07-08T07:59:12;27.30;61.50
42199;DHT22;27868;45.184;5.786;2023-07-08T08:01:57;27.30;62.50
42199;DHT22;27868;45.184;5.786;2023-07-08T08:04:42;27.40;61.80
42199;DHT22;27868;45.184;5.786;2023-07-08T08:07:26;27.40;61.60
42199;DHT22;27868;45.184;5.786;2023-07-08T08:10:11;27.40;61.30
42199;DHT22;27868;45.184;5.786;2023-07-08T08:12:55;27.40;61.30
42199;DHT22;27868;45.184;5.786;2023-07-08T08:15:40;27.40;61.30
42199;DHT22;27868;45.184;5.786;2023-07-08T08:18:25;27.50;61.10
42199;DHT22;27868;45.184;5.786;2023-07-08T08:21:09;27.50;60.90
42199;DHT22;27868;45.184;5.786;2023-07-08T08:23:53;27.60;60.90
42199;DHT22;27868;45.184;5.786;2023-07-08T08:26:38;27.60;60.90
42199;DHT22;27868;45.184;5.786;2023-07-08T08:29:22;27.60;60.70
42199;DHT22;27868;45.184;5.786;2023-07-08T08:32:07;27.60;60.80
42199;DHT22;27868;45.184;5.786;2023-07-08T08:34:51;27.60;60.70
42199;DHT22;27868;45.184;5.786;2023-07-08T08:37:36;27.60;61.00
42199;DHT22;27868;45.184;5.786;2023-07-08T08:40:20;27.70;60.60
42199;DHT22;27868;45.184;5.786;2023-07-08T08:43:05;27.70;60.50
42199;DHT22;27868;45.184;5.786;2023-07-08T08:45:56;27.70;60.50
42199;DHT22;27868;45.184;5.786;2023-07-08T08:48:43;27.70;59.70
42199;DHT22;27868;45.184;5.786;2023-07-08T08:51:32;27.70;60.10
42199;DHT22;27868;45.184;5.786;2023-07-08T08:54:17;27.70;60.20
42199;DHT22;27868;45.184;5.786;2023-07-08T08:59:53;27.80;60.10
42199;DHT22;27868;45.184;5.786;2023-07-08T09:02:39;27.80;60.10
42199;DHT22;27868;45.184;5.786;2023-07-08T09:05:25;27.80;59.60
42199;DHT22;27868;45.184;5.786;2023-07-08T09:08:18;27.90;59.90
42199;DHT22;27868;45.184;5.786;2023-07-08T09:11:17;27.90;59.70
42199;DHT22;27868;45.184;5.786;2023-07-08T09:14:03;27.90;59.70
42199;DHT22;27868;45.184;5.786;2023-07-08T09:16:54;27.90;59.80
42199;DHT22;27868;45.184;5.786;2023-07-08T09:19:41;28.00;59.80
42199;DHT22;27868;45.184;5.786;2023-07-08T09:22:31;28.10;59.80
42199;DHT22;27868;45.184;5.786;2023-07-08T09:25:28;28.00;59.40
42199;DHT22;27868;45.184;5.786;2023-07-08T09:28:14;28.10;59.80
42199;DHT22;27868;45.184;5.786;2023-07-08T09:30:59;28.10;59.50
42199;DHT22;27868;45.184;5.786;2023-07-08T09:33:43;28.20;60.00
42199;DHT22;27868;45.184;5.786;2023-07-08T09:36:28;28.20;59.50
42199;DHT22;27868;45.184;5.786;2023-07-08T09:39:13;28.30;60.00
42199;DHT22;27868;45.184;5.786;2023-07-08T09:41:58;28.40;60.20
42199;DHT22;27868;45.184;5.786;2023-07-08T09:44:54;28.40;59.20
42199;DHT22;27868;45.184;5.786;2023-07-08T09:47:39;28.50;59.40
42199;DHT22;27868;45.184;5.786;2023-07-08T09:50:25;28.60;59.70
42199;DHT22;27868;45.184;5.786;2023-07-08T09:53:11;28.70;60.20
42199;DHT22;27868;45.184;5.786;2023-07-08T09:55:57;28.70;58.30
42199;DHT22;27868;45.184;5.786;2023-07-08T09:58:43;28.80;58.90
42199;DHT22;27868;45.184;5.786;2023-07-08T10:01:31;28.80;58.60
42199;DHT22;27868;45.184;5.786;2023-07-08T10:04:17;28.90;58.80
42199;DHT22;27868;45.184;5.786;2023-07-08T10:07:03;28.90;58.40
42199;DHT22;27868;45.184;5.786;2023-07-08T10:09:54;29.00;59.20
42199;DHT22;27868;45.184;5.786;2023-07-08T10:12:40;29.10;58.50
42199;DHT22;27868;45.184;5.786;2023-07-08T10:15:28;29.10;58.90
42199;DHT22;27868;45.184;5.786;2023-07-08T10:18:14;29.30;57.60
42199;DHT22;27868;45.184;5.786;2023-07-08T10:21:07;29.30;57.70
42199;DHT22;27868;45.184;5.786;2023-07-08T10:23:59;29.50;55.20
42199;DHT22;27868;45.184;5.786;2023-07-08T10:26:49;29.50;55.50
42199;DHT22;27868;45.184;5.786;2023-07-08T10:29:41;29.60;55.50
42199;DHT22;27868;45.184;5.786;2023-07-08T10:35:39;29.90;56.40
42199;DHT22;27868;45.184;5.786;2023-07-08T10:41:47;30.30;54.50
42199;DHT22;27868;45.184;5.786;2023-07-08T10:44:43;30.50;55.40
42199;DHT22;27868;45.184;5.786;2023-07-08T10:59:44;31.50;54.30
42199;DHT22;27868;45.184;5.786;2023-07-08T11:08:08;31.90;52.30
42199;DHT22;27868;45.184;5.786;2023-07-08T11:10:56;32.10;52.40
42199;DHT22;27868;45.184;5.786;2023-07-08T11:13:45;32.30;52.10
42199;DHT22;27868;45.184;5.786;2023-07-08T11:19:37;32.50;52.10
42199;DHT22;27868;45.184;5.786;2023-07-08T11:22:22;32.70;51.90
42199;DHT22;27868;45.184;5.786;2023-07-08T11:25:08;32.70;50.80
42199;DHT22;27868;45.184;5.786;2023-07-08T11:28:02;32.90;52.00
42199;DHT22;27868;45.184;5.786;2023-07-08T11:30:47;33.00;49.20
42199;DHT22;27868;45.184;5.786;2023-07-08T11:33:34;33.20;51.50
42199;DHT22;27868;45.184;5.786;2023-07-08T11:36:19;33.40;51.50
42199;DHT22;27868;45.184;5.786;2023-07-08T11:39:05;33.60;47.70
42199;DHT22;27868;45.184;5.786;2023-07-08T11:50:54;34.00;45.90
42199;DHT22;27868;45.184;5.786;2023-07-08T11:53:46;34.20;49.30
42199;DHT22;27868;45.184;5.786;2023-07-08T11:59:40;34.60;48.10
42199;DHT22;27868;45.184;5.786;2023-07-08T12:02:25;34.70;47.40
42199;DHT22;27868;45.184;5.786;2023-07-08T12:05:15;34.80;47.90
42199;DHT22;27868;45.184;5.786;2023-07-08T12:08:00;34.90;46.10
42199;DHT22;27868;45.184;5.786;2023-07-08T12:10:47;34.90;46.30
42199;DHT22;27868;45.184;5.786;2023-07-08T12:13:32;34.90;46.30
42199;DHT22;27868;45.184;5.786;2023-07-08T12:16:17;35.10;46.90
42199;DHT22;27868;45.184;5.786;2023-07-08T12:19:02;35.10;46.50
42199;DHT22;27868;45.184;5.786;2023-07-08T12:21:48;35.10;46.40
42199;DHT22;27868;45.184;5.786;2023-07-08T12:24:33;35.20;46.50
42199;DHT22;27868;45.184;5.786;2023-07-08T12:27:17;35.20;46.90
42199;DHT22;27868;45.184;5.786;2023-07-08T12:30:02;35.30;47.00
42199;DHT22;27868;45.184;5.786;2023-07-08T12:32:46;35.40;46.10
42199;DHT22;27868;45.184;5.786;2023-07-08T12:35:32;35.60;45.80
42199;DHT22;27868;45.184;5.786;2023-07-08T12:41:28;35.80;46.20
42199;DHT22;27868;45.184;5.786;2023-07-08T12:44:27;35.90;46.20
42199;DHT22;27868;45.184;5.786;2023-07-08T12:47:12;36.00;45.00
42199;DHT22;27868;45.184;5.786;2023-07-08T12:49:56;36.00;43.60
42199;DHT22;27868;45.184;5.786;2023-07-08T12:52:44;36.20;46.20
42199;DHT22;27868;45.184;5.786;2023-07-08T12:55:29;36.40;47.60
42199;DHT22;27868;45.184;5.786;2023-07-08T12:58:16;36.40;46.00
42199;DHT22;27868;45.184;5.786;2023-07-08T13:01:03;36.60;44.20
42199;DHT22;27868;45.184;5.786;2023-07-08T13:03:48;36.60;42.40
42199;DHT22;27868;45.184;5.786;2023-07-08T13:06:34;36.70;44.80
42199;DHT22;27868;45.184;5.786;2023-07-08T13:12:42;36.70;43.20
42199;DHT22;27868;45.184;5.786;2023-07-08T13:15:28;36.80;46.20
42199;DHT22;27868;45.184;5.786;2023-07-08T13:18:19;36.80;46.30
42199;DHT22;27868;45.184;5.786;2023-07-08T13:21:04;36.90;46.20
42199;DHT22;27868;45.184;5.786;2023-07-08T13:23:49;37.00;45.80
42199;DHT22;27868;45.184;5.786;2023-07-08T13:26:33;37.10;46.60
42199;DHT22;27868;45.184;5.786;2023-07-08T13:29:19;37.10;47.00
42199;DHT22;27868;45.184;5.786;2023-07-08T13:32:05;37.20;45.80
42199;DHT22;27868;45.184;5.786;2023-07-08T13:34:50;37.10;45.70
42199;DHT22;27868;45.184;5.786;2023-07-08T13:37:35;37.00;46.20
42199;DHT22;27868;45.184;5.786;2023-07-08T13:40:20;37.10;45.60
42199;DHT22;27868;45.184;5.786;2023-07-08T13:43:04;37.10;45.90
42199;DHT22;27868;45.184;5.786;2023-07-08T13:45:49;37.00;46.00
42199;DHT22;27868;45.184;5.786;2023-07-08T13:48:35;37.00;46.50
42199;DHT22;27868;45.184;5.786;2023-07-08T13:51:22;36.90;47.80
42199;DHT22;27868;45.184;5.786;2023-07-08T13:54:33;36.80;48.00
42199;DHT22;27868;45.184;5.786;2023-07-08T13:57:12;36.60;47.30
42199;DHT22;27868;45.184;5.786;2023-07-08T13:59:56;36.60;48.30
42199;DHT22;27868;45.184;5.786;2023-07-08T14:02:43;36.50;48.00
42199;DHT22;27868;45.184;5.786;2023-07-08T14:05:28;36.40;47.90
42199;DHT22;27868;45.184;5.786;2023-07-08T14:08:13;36.40;48.10
42199;DHT22;27868;45.184;5.786;2023-07-08T14:10:58;36.30;49.20
42199;DHT22;27868;45.184;5.786;2023-07-08T14:13:43;36.30;48.80
42199;DHT22;27868;45.184;5.786;2023-07-08T14:16:28;36.30;48.70
42199;DHT22;27868;45.184;5.786;2023-07-08T14:19:21;36.30;48.60
42199;DHT22;27868;45.184;5.786;2023-07-08T14:24:52;36.50;48.60
42199;DHT22;27868;45.184;5.786;2023-07-08T14:27:36;36.50;48.20
42199;DHT22;27868;45.184;5.786;2023-07-08T14:30:20;36.50;47.70
42199;DHT22;27868;45.184;5.786;2023-07-08T14:33:08;36.60;48.30
42199;DHT22;27868;45.184;5.786;2023-07-08T14:35:52;36.70;46.70
42199;DHT22;27868;45.184;5.786;2023-07-08T14:38:37;36.70;46.20
42199;DHT22;27868;45.184;5.786;2023-07-08T14:41:22;36.60;46.10
42199;DHT22;27868;45.184;5.786;2023-07-08T14:47:07;36.50;45.60
42199;DHT22;27868;45.184;5.786;2023-07-08T14:49:52;36.50;46.50
42199;DHT22;27868;45.184;5.786;2023-07-08T14:52:37;36.40;46.20
42199;DHT22;27868;45.184;5.786;2023-07-08T14:55:22;36.40;47.00
42199;DHT22;27868;45.184;5.786;2023-07-08T14:58:06;36.30;46.80
42199;DHT22;27868;45.184;5.786;2023-07-08T15:00:51;36.40;47.10
42199;DHT22;27868;45.184;5.786;2023-07-08T15:03:36;36.50;45.10
42199;DHT22;27868;45.184;5.786;2023-07-08T15:06:20;36.40;46.80
42199;DHT22;27868;45.184;5.786;2023-07-08T15:09:05;36.40;46.30
42199;DHT22;27868;45.184;5.786;2023-07-08T15:11:50;36.30;44.90
42199;DHT22;27868;45.184;5.786;2023-07-08T15:14:34;36.30;46.60
42199;DHT22;27868;45.184;5.786;2023-07-08T15:17:19;36.20;46.50
42199;DHT22;27868;45.184;5.786;2023-07-08T15:20:07;36.20;46.80
42199;DHT22;27868;45.184;5.786;2023-07-08T15:22:53;36.20;47.60
42199;DHT22;27868;45.184;5.786;2023-07-08T15:25:39;36.10;47.10
42199;DHT22;27868;45.184;5.786;2023-07-08T15:28:39;36.00;46.90
42199;DHT22;27868;45.184;5.786;2023-07-08T15:31:32;36.00;45.20
42199;DHT22;27868;45.184;5.786;2023-07-08T15:34:18;35.90;46.40
42199;DHT22;27868;45.184;5.786;2023-07-08T15:37:03;35.90;46.80
42199;DHT22;27868;45.184;5.786;2023-07-08T15:39:47;35.90;47.10
42199;DHT22;27868;45.184;5.786;2023-07-08T15:42:32;35.80;47.60
42199;DHT22;27868;45.184;5.786;2023-07-08T15:45:22;35.70;47.50
42199;DHT22;27868;45.184;5.786;2023-07-08T15:48:16;35.70;47.40
42199;DHT22;27868;45.184;5.786;2023-07-08T15:51:01;35.60;47.00
42199;DHT22;27868;45.184;5.786;2023-07-08T15:53:46;35.50;47.40
42199;DHT22;27868;45.184;5.786;2023-07-08T15:56:30;35.50;47.40
42199;DHT22;27868;45.184;5.786;2023-07-08T15:59:16;35.50;47.70
42199;DHT22;27868;45.184;5.786;2023-07-08T16:02:04;35.30;47.20
42199;DHT22;27868;45.184;5.786;2023-07-08T16:04:54;35.30;48.00
42199;DHT22;27868;45.184;5.786;2023-07-08T16:07:38;35.40;48.20
42199;DHT22;27868;45.184;5.786;2023-07-08T16:10:23;35.30;47.80
42199;DHT22;27868;45.184;5.786;2023-07-08T16:13:09;35.20;46.80
42199;DHT22;27868;45.184;5.786;2023-07-08T16:15:55;35.20;47.30
42199;DHT22;27868;45.184;5.786;2023-07-08T16:18:39;35.10;45.60
42199;DHT22;27868;45.184;5.786;2023-07-08T16:21:24;35.00;47.80
42199;DHT22;27868;45.184;5.786;2023-07-08T16:24:09;35.00;46.90
42199;DHT22;27868;45.184;5.786;2023-07-08T16:26:53;34.90;47.50
42199;DHT22;27868;45.184;5.786;2023-07-08T16:29:38;35.00;47.70
42199;DHT22;27868;45.184;5.786;2023-07-08T16:32:22;34.80;46.70
42199;DHT22;27868;45.184;5.786;2023-07-08T16:35:10;34.90;47.00
42199;DHT22;27868;45.184;5.786;2023-07-08T16:37:55;34.80;47.50
42199;DHT22;27868;45.184;5.786;2023-07-08T16:40:40;34.80;47.60
42199;DHT22;27868;45.184;5.786;2023-07-08T16:43:29;34.70;47.60
42199;DHT22;27868;45.184;5.786;2023-07-08T16:46:17;34.70;47.90
42199;DHT22;27868;45.184;5.786;2023-07-08T16:49:02;34.70;47.90
42199;DHT22;27868;45.184;5.786;2023-07-08T16:51:46;34.70;47.70
42199;DHT22;27868;45.184;5.786;2023-07-08T16:54:31;34.70;47.20
42199;DHT22;27868;45.184;5.786;2023-07-08T16:57:15;34.60;47.80
42199;DHT22;27868;45.184;5.786;2023-07-08T17:00:01;34.60;48.20
42199;DHT22;27868;45.184;5.786;2023-07-08T17:02:46;34.50;48.30
42199;DHT22;27868;45.184;5.786;2023-07-08T17:05:32;34.50;48.50
42199;DHT22;27868;45.184;5.786;2023-07-08T17:08:18;34.50;48.80
42199;DHT22;27868;45.184;5.786;2023-07-08T17:11:02;34.40;49.20
42199;DHT22;27868;45.184;5.786;2023-07-08T17:13:47;34.40;49.50
42199;DHT22;27868;45.184;5.786;2023-07-08T17:16:32;34.40;49.90
42199;DHT22;27868;45.184;5.786;2023-07-08T17:19:17;34.30;50.20
42199;DHT22;27868;45.184;5.786;2023-07-08T17:22:02;34.30;50.50
42199;DHT22;27868;45.184;5.786;2023-07-08T17:24:47;34.20;50.60
42199;DHT22;27868;45.184;5.786;2023-07-08T17:27:31;34.20;50.30
42199;DHT22;27868;45.184;5.786;2023-07-08T17:30:16;34.20;50.30
42199;DHT22;27868;45.184;5.786;2023-07-08T17:33:00;34.20;50.00
42199;DHT22;27868;45.184;5.786;2023-07-08T17:35:46;34.10;50.00
42199;DHT22;27868;45.184;5.786;2023-07-08T17:38:41;34.10;50.60
42199;DHT22;27868;45.184;5.786;2023-07-08T17:41:27;34.00;50.80
42199;DHT22;27868;45.184;5.786;2023-07-08T17:44:11;34.00;51.10
42199;DHT22;27868;45.184;5.786;2023-07-08T17:46:56;33.90;51.70
42199;DHT22;27868;45.184;5.786;2023-07-08T17:49:42;33.90;51.90
42199;DHT22;27868;45.184;5.786;2023-07-08T17:52:27;33.90;52.20
42199;DHT22;27868;45.184;5.786;2023-07-08T17:55:11;33.80;52.30
42199;DHT22;27868;45.184;5.786;2023-07-08T17:57:56;33.80;52.60
42199;DHT22;27868;45.184;5.786;2023-07-08T18:00:41;33.80;52.70
42199;DHT22;27868;45.184;5.786;2023-07-08T18:03:25;33.70;52.80
42199;DHT22;27868;45.184;5.786;2023-07-08T18:06:10;33.70;53.00
42199;DHT22;27868;45.184;5.786;2023-07-08T18:08:54;33.60;53.00
42199;DHT22;27868;45.184;5.786;2023-07-08T18:11:41;33.60;53.20
42199;DHT22;27868;45.184;5.786;2023-07-08T18:14:27;33.50;54.00
42199;DHT22;27868;45.184;5.786;2023-07-08T18:17:11;33.40;53.50
42199;DHT22;27868;45.184;5.786;2023-07-08T18:19:56;33.40;54.50
42199;DHT22;27868;45.184;5.786;2023-07-08T18:22:46;33.20;54.40